createdAt,value
2023-03-25T00:01:48.028Z,35.17
2023-03-25T00:04:18.760Z,35.04
2023-03-25T00:06:49.185Z,35.31
2023-03-25T00:09:20.826Z,35.28
2023-03-25T00:11:53.169Z,35.20
2023-03-25T00:14:24.224Z,35.37
2023-03-25T00:16:54.530Z,35.40
2023-03-25T00:19:26.051Z,35.29
2023-03-25T00:21:56.462Z,35.75
2023-03-25T00:24:28.240Z,35.64
2023-03-25T00:26:57.912Z,35.80
2023-03-25T00:29:29.048Z,35.82
2023-03-25T00:31:59.884Z,36.05
2023-03-25T00:34:29.912Z,36.08
2023-03-25T00:37:00.148Z,36.14
2023-03-25T00:39:32.609Z,36.15
2023-03-25T00:42:03.027Z,36.29
2023-03-25T00:44:35.932Z,36.12
2023-03-25T00:47:06.392Z,36.31
2023-03-25T00:49:37.037Z,36.26
2023-03-25T00:52:07.205Z,36.37
2023-03-25T00:54:39.808Z,36.29
2023-03-25T00:57:10.111Z,36.36
2023-03-25T00:59:40.513Z,36.35
2023-03-25T01:02:10.938Z,36.56
2023-03-25T01:04:42.780Z,36.42
2023-03-25T01:07:16.744Z,36.31
2023-03-25T01:09:50.004Z,36.73
2023-03-25T01:12:21.250Z,36.73
2023-03-25T01:14:51.382Z,36.58
2023-03-25T01:17:21.023Z,36.55
2023-03-25T01:19:51.331Z,36.62
2023-03-25T01:22:21.646Z,36.61
2023-03-25T01:24:54.073Z,36.69
2023-03-25T01:27:24.865Z,36.69
2023-03-25T01:29:55.570Z,36.78
2023-03-25T01:32:25.822Z,36.70
2023-03-25T01:34:56.031Z,36.83
2023-03-25T01:37:27.576Z,36.71
2023-03-25T01:39:59.549Z,36.97
2023-03-25T01:42:29.895Z,36.75
2023-03-25T01:45:25.491Z,36.90
2023-03-25T01:48:11.915Z,36.83
2023-03-25T01:50:47.376Z,36.95
2023-03-25T01:53:19.420Z,36.96
2023-03-25T01:55:55.036Z,37.11
2023-03-25T01:58:29.359Z,36.93
2023-03-25T02:01:01.781Z,37.17
2023-03-25T02:03:37.852Z,37.00
2023-03-25T02:06:17.338Z,37.04
2023-03-25T02:08:47.391Z,37.13
2023-03-25T02:11:19.210Z,37.28
2023-03-25T02:13:50.043Z,37.19
2023-03-25T02:16:35.324Z,37.37
2023-03-25T02:19:44.956Z,37.25
2023-03-25T02:23:04.290Z,37.21
2023-03-25T02:26:14.155Z,37.31
2023-03-25T02:28:57.654Z,37.23
2023-03-25T02:32:03.556Z,37.35
2023-03-25T02:35:14.390Z,37.61
2023-03-25T02:38:38.757Z,37.61
2023-03-25T02:41:16.735Z,37.50
2023-03-25T02:43:58.019Z,37.79
2023-03-25T02:46:31.855Z,37.74
2023-03-25T02:49:10.935Z,37.83
2023-03-25T02:51:49.666Z,37.87
2023-03-25T02:54:26.580Z,37.98
2023-03-25T02:57:00.298Z,38.03
2023-03-25T02:59:38.688Z,38.14
2023-03-25T03:02:12.785Z,38.32
2023-03-25T03:04:52.593Z,38.22
2023-03-25T03:07:31.066Z,38.24
2023-03-25T03:10:19.826Z,38.30
2023-03-25T03:13:06.490Z,38.36
2023-03-25T03:15:51.632Z,38.29
2023-03-25T03:18:42.792Z,38.47
2023-03-25T03:21:24.959Z,38.43
2023-03-25T03:24:02.577Z,38.42
2023-03-25T03:26:45.326Z,38.32
2023-03-25T03:29:21.682Z,38.30
2023-03-25T03:32:05.851Z,38.42
2023-03-25T03:34:47.019Z,38.45
2023-03-25T03:37:23.108Z,38.36
2023-03-25T03:39:57.438Z,38.35
2023-03-25T03:42:37.228Z,38.13
2023-03-25T03:45:15.126Z,38.50
2023-03-25T03:47:51.647Z,38.32
2023-03-25T03:50:27.434Z,38.49
2023-03-25T03:53:10.665Z,38.46
2023-03-25T03:55:45.991Z,38.63
2023-03-25T03:58:25.868Z,38.52
2023-03-25T04:01:05.839Z,38.72
2023-03-25T04:03:45.710Z,38.95
2023-03-25T04:06:24.924Z,38.79
2023-03-25T04:09:05.064Z,38.71
2023-03-25T04:11:42.176Z,38.81
2023-03-25T04:14:16.730Z,38.87
2023-03-25T04:16:47.566Z,38.89
2023-03-25T04:19:18.695Z,38.77
2023-03-25T04:21:50.233Z,39.25
2023-03-25T04:24:20.881Z,38.90
2023-03-25T04:26:53.479Z,38.94
2023-03-25T04:29:26.025Z,39.09
2023-03-25T04:31:57.535Z,39.04
2023-03-25T04:34:28.267Z,39.32
2023-03-25T04:36:58.589Z,39.11
2023-03-25T04:39:30.192Z,39.16
2023-03-25T04:42:02.368Z,38.93
2023-03-25T04:44:39.448Z,39.34
2023-03-25T04:47:16.710Z,39.21
2023-03-25T04:49:47.225Z,39.32
2023-03-25T04:52:19.236Z,39.32
2023-03-25T04:54:49.627Z,39.58
2023-03-25T04:57:20.716Z,39.43
2023-03-25T04:59:52.445Z,39.56
2023-03-25T05:02:24.407Z,39.32
2023-03-25T05:04:54.784Z,39.41
2023-03-25T05:07:25.022Z,39.57
2023-03-25T05:09:55.272Z,39.75
2023-03-25T05:12:25.202Z,39.66
2023-03-25T05:14:57.472Z,40.01
2023-03-25T05:17:27.560Z,39.74
2023-03-25T05:19:57.600Z,39.68
2023-03-25T05:22:27.607Z,39.79
2023-03-25T05:24:57.713Z,39.62
2023-03-25T05:27:28.792Z,39.72
2023-03-25T05:30:00.570Z,39.76
2023-03-25T05:32:33.688Z,39.57
2023-03-25T05:35:05.309Z,39.73
2023-03-25T05:37:35.830Z,39.89
2023-03-25T05:40:14.895Z,39.93
2023-03-25T05:42:49.343Z,39.93
2023-03-25T05:45:21.915Z,39.90
2023-03-25T05:47:52.534Z,39.83
2023-03-25T05:50:23.295Z,40.13
2023-03-25T05:52:53.252Z,40.12
2023-03-25T05:55:25.898Z,40.04
2023-03-25T05:57:57.322Z,40.15
2023-03-25T06:00:30.811Z,40.00
2023-03-25T06:03:01.726Z,40.23
2023-03-25T06:05:32.046Z,40.33
2023-03-25T06:08:02.493Z,40.30
2023-03-25T06:10:33.750Z,40.34
2023-03-25T06:13:03.932Z,40.37
2023-03-25T06:15:39.752Z,40.29
2023-03-25T06:18:10.910Z,40.35
2023-03-25T06:20:40.708Z,40.44
2023-03-25T06:23:10.720Z,40.45
2023-03-25T06:25:40.504Z,40.47
2023-03-25T06:28:10.789Z,40.51
2023-03-25T06:30:43.047Z,40.42
2023-03-25T06:33:14.385Z,40.56
2023-03-25T06:36:04.721Z,40.61
2023-03-25T06:38:36.525Z,40.49
2023-03-25T06:41:07.540Z,40.56
2023-03-25T06:43:38.151Z,40.62
2023-03-25T06:46:11.565Z,40.65
2023-03-25T06:48:42.300Z,40.70
2023-03-25T06:51:12.756Z,40.48
2023-03-25T06:53:43.025Z,40.95
2023-03-25T06:56:13.527Z,40.35
2023-03-25T06:58:43.833Z,40.59
2023-03-25T07:01:16.208Z,40.67
2023-03-25T07:03:47.788Z,40.71
2023-03-25T07:06:22.672Z,40.76
2023-03-25T07:08:53.314Z,41.01
2023-03-25T07:11:30.248Z,40.79
2023-03-25T07:14:00.812Z,40.98
2023-03-25T07:16:33.156Z,40.85
2023-03-25T07:19:03.750Z,40.77
2023-03-25T07:21:34.115Z,40.74
2023-03-25T07:24:04.165Z,40.36
2023-03-25T07:26:34.301Z,40.73
2023-03-25T07:29:04.459Z,40.88
2023-03-25T07:31:37.221Z,40.91
2023-03-25T07:34:09.204Z,40.85
2023-03-25T07:36:39.159Z,40.81
2023-03-25T07:39:09.548Z,40.93
2023-03-25T07:41:39.399Z,41.04
2023-03-25T07:44:09.830Z,40.83
2023-03-25T07:46:42.101Z,40.63
2023-03-25T07:49:12.176Z,40.92
2023-03-25T07:51:42.598Z,41.08
2023-03-25T07:54:12.690Z,41.02
2023-03-25T07:56:43.127Z,40.93
2023-03-25T07:59:13.496Z,40.75
2023-03-25T08:01:45.467Z,40.99
2023-03-25T08:04:16.149Z,40.72
2023-03-25T08:06:46.398Z,40.67
2023-03-25T08:09:16.956Z,40.51
2023-03-25T08:11:47.388Z,40.65
2023-03-25T08:14:17.783Z,40.69
2023-03-25T08:16:50.310Z,40.37
2023-03-25T08:19:21.010Z,40.42
2023-03-25T08:21:51.452Z,40.61
2023-03-25T08:24:21.364Z,40.40
2023-03-25T08:26:52.560Z,40.37
2023-03-25T08:29:22.832Z,40.01
2023-03-25T08:31:55.341Z,40.35
2023-03-25T08:34:28.626Z,40.29
2023-03-25T08:37:01.716Z,40.44
2023-03-25T08:39:37.509Z,40.42
2023-03-25T08:42:08.493Z,40.63
2023-03-25T08:44:38.789Z,40.42
2023-03-25T08:47:11.590Z,40.31
2023-03-25T08:49:41.936Z,40.51
2023-03-25T08:52:12.005Z,40.39
2023-03-25T08:54:42.492Z,40.45
2023-03-25T08:57:12.716Z,40.38
2023-03-25T08:59:45.182Z,40.20
2023-03-25T09:02:17.488Z,40.24
2023-03-25T09:04:50.095Z,40.40
2023-03-25T09:07:20.173Z,40.40
2023-03-25T09:09:50.773Z,40.38
2023-03-25T09:12:21.078Z,40.15
2023-03-25T09:14:51.396Z,40.20
2023-03-25T09:17:23.577Z,40.32
2023-03-25T09:19:54.509Z,40.06
2023-03-25T09:22:26.108Z,40.24
2023-03-25T09:24:56.202Z,40.34
2023-03-25T09:27:29.495Z,40.15
2023-03-25T09:30:00.432Z,39.81
2023-03-25T09:32:32.309Z,40.21
2023-03-25T09:35:02.665Z,40.04
2023-03-25T09:37:32.416Z,39.90
2023-03-25T09:40:02.772Z,40.18
2023-03-25T09:43:05.618Z,40.19
2023-03-25T09:45:42.467Z,39.88
2023-03-25T09:48:31.703Z,40.19
2023-03-25T09:51:07.747Z,39.77
2023-03-25T09:53:46.196Z,39.89
2023-03-25T09:56:20.568Z,40.21
2023-03-25T09:58:54.430Z,40.01
2023-03-25T10:01:42.242Z,40.05
2023-03-25T10:04:49.892Z,39.75
2023-03-25T10:07:43.396Z,39.93
2023-03-25T10:10:26.215Z,39.76
2023-03-25T10:13:11.770Z,39.65
2023-03-25T10:15:56.761Z,39.72
2023-03-25T10:18:58.227Z,39.75
2023-03-25T10:21:42.422Z,39.70
2023-03-25T10:24:24.152Z,39.76
2023-03-25T10:27:00.911Z,39.54
2023-03-25T10:29:39.456Z,39.50
2023-03-25T10:32:18.710Z,39.51
2023-03-25T10:34:56.449Z,39.10
2023-03-25T10:37:34.040Z,39.46
2023-03-25T10:40:21.552Z,39.57
2023-03-25T10:43:14.386Z,39.51
2023-03-25T10:45:47.600Z,39.52
2023-03-25T10:48:25.621Z,39.56
2023-03-25T10:51:04.674Z,39.57
2023-03-25T10:53:37.444Z,39.28
2023-03-25T10:56:11.875Z,39.41
2023-03-25T10:58:45.286Z,39.54
2023-03-25T11:01:18.887Z,39.45
2023-03-25T11:03:54.872Z,39.45
2023-03-25T11:06:30.805Z,39.56
2023-03-25T11:09:24.697Z,39.52
2023-03-25T11:11:56.417Z,39.54
2023-03-25T11:14:29.224Z,39.31
2023-03-25T11:17:04.385Z,39.63
2023-03-25T11:19:42.783Z,39.64
2023-03-25T11:22:19.600Z,39.70
2023-03-25T11:24:57.457Z,39.49
2023-03-25T11:27:31.429Z,39.76
2023-03-25T11:30:16.763Z,39.92
2023-03-25T11:32:47.311Z,40.23
2023-03-25T11:35:24.811Z,39.97
2023-03-25T11:38:00.850Z,40.00
2023-03-25T11:40:34.077Z,40.17
2023-03-25T11:43:05.197Z,40.23
2023-03-25T11:45:39.536Z,40.30
2023-03-25T11:48:18.748Z,40.13
2023-03-25T11:50:53.267Z,40.25
2023-03-25T11:53:28.272Z,40.11
2023-03-25T11:56:07.200Z,40.44
2023-03-25T11:58:42.175Z,39.98
2023-03-25T12:01:28.590Z,40.13
2023-03-25T12:04:15.885Z,40.05
2023-03-25T12:07:02.475Z,40.19
2023-03-25T12:09:34.065Z,39.86
2023-03-25T12:12:35.773Z,40.27
2023-03-25T12:15:29.423Z,40.24
2023-03-25T12:18:20.687Z,40.00
2023-03-25T12:21:08.019Z,40.11
2023-03-25T12:23:53.982Z,40.01
2023-03-25T12:26:31.178Z,40.10
2023-03-25T12:29:36.369Z,40.05
2023-03-25T12:32:27.279Z,40.13
2023-03-25T12:35:22.818Z,40.32
2023-03-25T12:38:21.848Z,40.13
2023-03-25T12:41:16.056Z,40.20
2023-03-25T12:44:03.179Z,39.71
2023-03-25T12:47:14.652Z,40.27
2023-03-25T12:50:18.761Z,40.12
2023-03-25T12:53:04.870Z,40.08
2023-03-25T12:55:53.826Z,40.08
2023-03-25T12:58:56.476Z,39.78
2023-03-25T13:01:40.846Z,40.19
2023-03-25T13:04:31.542Z,39.96
2023-03-25T13:07:08.036Z,40.05
2023-03-25T13:09:57.646Z,40.17
2023-03-25T13:12:37.420Z,40.02
2023-03-25T13:15:26.405Z,40.29
2023-03-25T13:18:08.125Z,40.30
2023-03-25T13:20:43.246Z,40.10
2023-03-25T13:23:22.327Z,40.08
2023-03-25T13:25:58.588Z,39.83
2023-03-25T13:28:38.942Z,40.14
2023-03-25T13:31:15.201Z,40.17
2023-03-25T13:33:55.246Z,40.47
2023-03-25T13:36:33.613Z,40.31
2023-03-25T13:39:14.515Z,40.26
2023-03-25T13:41:52.159Z,40.22
2023-03-25T13:44:30.239Z,40.19
2023-03-25T13:47:07.900Z,40.11
2023-03-25T13:49:46.978Z,40.12
2023-03-25T13:52:18.489Z,40.10
2023-03-25T13:54:55.226Z,40.01
2023-03-25T13:58:17.046Z,39.95
2023-03-25T14:01:22.310Z,39.96
2023-03-25T14:04:26.009Z,39.84
2023-03-25T14:07:57.830Z,39.93
2023-03-25T14:10:53.617Z,39.80
2023-03-25T14:13:30.597Z,39.83
2023-03-25T14:16:08.858Z,40.10
2023-03-25T14:18:45.639Z,39.69
2023-03-25T14:21:30.937Z,39.76
2023-03-25T14:24:11.814Z,39.96
2023-03-25T14:26:52.551Z,39.99
2023-03-25T14:29:37.440Z,39.67
2023-03-25T14:32:37.997Z,39.67
2023-03-25T14:35:49.426Z,39.63
2023-03-25T14:38:38.941Z,39.92
2023-03-25T14:41:09.647Z,39.44
2023-03-25T14:43:48.152Z,39.36
2023-03-25T14:46:24.913Z,39.54
2023-03-25T14:49:21.515Z,39.77
2023-03-25T14:51:59.018Z,39.63
2023-03-25T14:54:37.761Z,39.69
2023-03-25T14:57:13.232Z,39.73
2023-03-25T14:59:51.014Z,39.74
2023-03-25T15:02:28.959Z,40.27
2023-03-25T15:05:04.049Z,39.59
2023-03-25T15:07:50.293Z,39.94
2023-03-25T15:10:31.090Z,40.05
2023-03-25T15:13:08.634Z,40.02
2023-03-25T15:16:02.427Z,40.41
2023-03-25T15:19:09.877Z,40.18
2023-03-25T15:22:20.823Z,40.44
2023-03-25T15:25:01.823Z,40.26
2023-03-25T15:27:54.545Z,40.30
2023-03-25T15:31:14.171Z,40.49
2023-03-25T15:34:26.408Z,40.56
2023-03-25T15:37:46.089Z,40.78
2023-03-25T15:40:32.395Z,40.69
2023-03-25T15:44:01.352Z,40.54
2023-03-25T15:47:13.281Z,40.76
2023-03-25T15:50:29.780Z,40.58
2023-03-25T15:53:48.683Z,40.95
2023-03-25T15:56:23.945Z,40.79
2023-03-25T15:59:05.999Z,40.68
2023-03-25T16:01:39.701Z,40.74
2023-03-25T16:04:19.650Z,40.82
2023-03-25T16:06:57.631Z,41.15
2023-03-25T16:09:32.700Z,41.04
2023-03-25T16:12:04.089Z,40.91
2023-03-25T16:14:36.984Z,40.98
2023-03-25T16:17:10.223Z,40.94
2023-03-25T16:19:45.952Z,40.96
2023-03-25T16:22:32.391Z,41.06
2023-03-25T16:25:07.187Z,41.30
2023-03-25T16:27:41.184Z,41.48
2023-03-25T16:30:25.349Z,41.00
2023-03-25T16:32:55.911Z,41.17
2023-03-25T16:35:30.457Z,41.26
2023-03-25T16:38:04.891Z,41.34
2023-03-25T16:40:41.481Z,41.26
2023-03-25T16:43:21.710Z,41.25
2023-03-25T16:45:54.312Z,41.38
2023-03-25T16:48:30.321Z,41.37
2023-03-25T16:51:08.081Z,41.61
2023-03-25T16:53:43.177Z,41.48
2023-03-25T16:56:27.779Z,41.44
2023-03-25T16:59:05.030Z,41.57
2023-03-25T17:01:39.758Z,41.51
2023-03-25T17:04:19.113Z,41.50
2023-03-25T17:06:54.961Z,42.07
2023-03-25T17:09:34.770Z,41.60
2023-03-25T17:12:11.372Z,41.47
2023-03-25T17:14:46.534Z,41.50
2023-03-25T17:17:36.237Z,41.54
2023-03-25T17:20:11.705Z,41.62
2023-03-25T17:22:42.278Z,41.69
2023-03-25T17:25:28.658Z,41.50
2023-03-25T17:28:02.057Z,41.58
2023-03-25T17:30:45.732Z,41.76
2023-03-25T17:33:21.685Z,41.66
2023-03-25T17:35:57.992Z,41.73
2023-03-25T17:38:34.531Z,41.66
2023-03-25T17:41:09.665Z,41.75
2023-03-25T17:43:44.975Z,41.88
2023-03-25T17:46:21.706Z,41.85
2023-03-25T17:48:53.951Z,42.02
2023-03-25T17:51:35.602Z,41.96
2023-03-25T17:54:06.006Z,41.99
2023-03-25T17:56:40.543Z,42.07
2023-03-25T17:59:16.951Z,41.75
2023-03-25T18:01:50.391Z,41.90
2023-03-25T18:04:22.599Z,42.24
2023-03-25T18:06:53.450Z,42.05
2023-03-25T18:09:27.006Z,41.99
2023-03-25T18:12:00.467Z,42.21
2023-03-25T18:14:31.141Z,42.22
2023-03-25T18:17:01.524Z,42.20
2023-03-25T18:19:34.336Z,42.20
2023-03-25T18:22:13.860Z,42.13
2023-03-25T18:24:49.897Z,42.04
2023-03-25T18:27:27.794Z,42.26
2023-03-25T18:30:07.617Z,42.21
2023-03-25T18:32:38.210Z,42.25
2023-03-25T18:35:09.544Z,42.25
2023-03-25T18:37:39.903Z,42.31
2023-03-25T18:40:24.318Z,42.28
2023-03-25T18:42:56.882Z,42.59
2023-03-25T18:45:29.023Z,42.21
2023-03-25T18:47:59.155Z,42.42
2023-03-25T18:50:33.752Z,42.36
2023-03-25T18:53:04.455Z,42.21
2023-03-25T18:55:37.708Z,42.45
2023-03-25T18:58:14.701Z,42.45
2023-03-25T19:00:45.050Z,42.55
2023-03-25T19:03:15.835Z,42.45
2023-03-25T19:05:46.924Z,42.72
2023-03-25T19:08:21.393Z,42.56
2023-03-25T19:10:51.574Z,42.86
2023-03-25T19:13:23.462Z,42.43
2023-03-25T19:15:53.676Z,42.86
2023-03-25T19:18:27.861Z,42.90
2023-03-25T19:20:58.439Z,42.79
2023-03-25T19:23:29.325Z,42.87
2023-03-25T19:26:01.462Z,43.11
2023-03-25T19:28:34.240Z,43.00
2023-03-25T19:31:04.840Z,42.91
2023-03-25T19:33:34.983Z,43.17
2023-03-25T19:36:05.634Z,43.11
2023-03-25T19:38:36.172Z,43.10
2023-03-25T19:41:10.108Z,43.02
2023-03-25T19:43:42.638Z,43.31
2023-03-25T19:46:13.096Z,43.10
2023-03-25T19:48:43.156Z,43.15
2023-03-25T19:51:13.038Z,43.26
2023-03-25T19:53:43.550Z,43.29
2023-03-25T19:56:14.472Z,43.39
2023-03-25T19:58:46.817Z,43.30
2023-03-25T20:01:17.450Z,43.39
2023-03-25T20:03:48.011Z,43.44
2023-03-25T20:06:18.422Z,43.52
2023-03-25T20:08:48.546Z,43.36
2023-03-25T20:11:18.793Z,43.45
2023-03-25T20:13:51.204Z,43.23
2023-03-25T20:16:22.043Z,43.57
2023-03-25T20:18:52.504Z,43.52
2023-03-25T20:21:25.179Z,43.69
2023-03-25T20:23:55.222Z,43.54
2023-03-25T20:26:25.573Z,43.66
2023-03-25T20:28:57.952Z,43.64
2023-03-25T20:31:29.012Z,43.63
2023-03-25T20:33:59.107Z,43.74
2023-03-25T20:36:29.876Z,43.72
2023-03-25T20:39:04.268Z,43.68
2023-03-25T20:41:35.240Z,43.70
2023-03-25T20:44:08.218Z,43.87
2023-03-25T20:46:38.798Z,43.88
2023-03-25T20:49:10.390Z,44.14
2023-03-25T20:51:42.137Z,43.87
2023-03-25T20:54:12.793Z,43.95
2023-03-25T20:56:42.509Z,43.94
2023-03-25T20:59:17.113Z,44.02
2023-03-25T21:01:50.849Z,44.08
2023-03-25T21:04:21.465Z,43.85
2023-03-25T21:06:52.411Z,43.78
2023-03-25T21:09:22.493Z,44.18
2023-03-25T21:11:52.753Z,44.06
2023-03-25T21:14:31.179Z,43.92
2023-03-25T21:17:01.644Z,44.01
2023-03-25T21:19:31.976Z,44.02
2023-03-25T21:22:02.314Z,44.05
2023-03-25T21:24:34.689Z,43.89
2023-03-25T21:27:05.639Z,44.01
2023-03-25T21:29:38.004Z,44.21
2023-03-25T21:32:11.335Z,44.12
2023-03-25T21:34:41.861Z,44.08
2023-03-25T21:37:12.320Z,44.13
2023-03-25T21:39:42.025Z,44.15
2023-03-25T21:42:12.245Z,44.13
2023-03-25T21:44:44.260Z,44.10
2023-03-25T21:47:14.907Z,44.32
2023-03-25T21:49:45.001Z,44.10
2023-03-25T21:52:15.203Z,44.35
2023-03-25T21:54:45.849Z,44.28
2023-03-25T21:57:16.257Z,44.37
2023-03-25T21:59:48.282Z,44.52
2023-03-25T22:02:21.438Z,44.49
2023-03-25T22:04:51.878Z,44.37
2023-03-25T22:07:22.179Z,44.48
2023-03-25T22:09:52.848Z,44.47
2023-03-25T22:12:23.350Z,44.46
2023-03-25T22:14:55.738Z,44.55
2023-03-25T22:17:26.451Z,44.48
2023-03-25T22:19:57.266Z,44.65
2023-03-25T22:22:27.067Z,44.42
2023-03-25T22:24:56.954Z,44.38
2023-03-25T22:27:27.334Z,44.57
2023-03-25T22:29:59.202Z,44.61
2023-03-25T22:32:29.167Z,44.86
2023-03-25T22:34:59.604Z,44.47
2023-03-25T22:37:29.564Z,44.80
2023-03-25T22:39:59.910Z,44.62
2023-03-25T22:42:30.061Z,44.44
2023-03-25T22:45:02.098Z,44.71
2023-03-25T22:47:32.555Z,44.96
2023-03-25T22:50:02.960Z,44.80
2023-03-25T22:52:33.201Z,44.88
2023-03-25T22:55:04.153Z,44.71
2023-03-25T22:57:34.521Z,44.99
2023-03-25T23:00:13.130Z,44.89
2023-03-25T23:02:43.687Z,44.96
2023-03-25T23:05:15.165Z,45.01
2023-03-25T23:07:45.817Z,44.97
2023-03-25T23:10:16.890Z,44.95
2023-03-25T23:12:46.738Z,45.05
2023-03-25T23:15:18.469Z,45.13
2023-03-25T23:17:49.001Z,45.14
2023-03-25T23:20:19.688Z,45.01
2023-03-25T23:22:50.113Z,44.84
2023-03-25T23:25:20.797Z,45.11
2023-03-25T23:27:51.049Z,44.90
2023-03-25T23:30:24.317Z,45.00
2023-03-25T23:32:54.085Z,44.94
2023-03-25T23:35:24.463Z,45.12
2023-03-25T23:37:54.535Z,45.29
2023-03-25T23:40:24.761Z,45.16
2023-03-25T23:42:55.147Z,45.01
2023-03-25T23:45:30.421Z,45.18
2023-03-25T23:48:00.789Z,45.25
2023-03-25T23:50:31.880Z,45.21
2023-03-25T23:53:02.068Z,45.16
2023-03-25T23:55:32.547Z,45.01
2023-03-25T23:58:03.569Z,45.13
